Time;durP1;ratioP1;P1;durP2;ratioP2;P2;SDS_P1;SDS_P2;PMS_P1;PMS_P2;Temp;Humidity;BMP_temperature;BMP_pressure;BME280_temperature;BME280_humidity;BME280_pressure;Samples;Min_cycle;Max_cycle;Signal;HPM_P1;HPM_P2
2022/05/06 00:01:46;;;;;;;12.95;9.18;;;9.50;99.90;;;;;;5038642;28;20033;-75
2022/05/06 00:04:14;;;;;;;10.98;7.63;;;9.50;99.90;;;;;;5053552;28;20035;-75
2022/05/06 00:06:39;;;;;;;13.13;8.93;;;9.50;99.90;;;;;;5036764;28;20393;-75
2022/05/06 00:09:05;;;;;;;11.68;8.27;;;9.50;99.90;;;;;;5029449;28;20104;-75
2022/05/06 00:11:31;;;;;;;13.13;9.10;;;9.30;99.90;;;;;;5037846;28;20024;-75
2022/05/06 00:13:57;;;;;;;14.77;9.30;;;9.30;99.90;;;;;;5030251;28;20027;-75
2022/05/06 00:16:24;;;;;;;12.20;8.23;;;9.30;99.90;;;;;;5037985;28;20473;-74
2022/05/06 00:18:51;;;;;;;12.95;8.85;;;9.30;99.90;;;;;;5037851;28;20067;-75
2022/05/06 00:21:17;;;;;;;13.63;9.32;;;9.30;99.90;;;;;;5038085;28;20063;-76
2022/05/06 00:23:43;;;;;;;13.25;9.10;;;9.20;99.90;;;;;;5037339;28;20452;-75
2022/05/06 00:26:09;;;;;;;12.88;8.48;;;9.20;99.90;;;;;;5036756;28;20040;-75
2022/05/06 00:28:35;;;;;;;14.43;9.93;;;9.20;99.90;;;;;;5036122;28;20031;-75
2022/05/06 00:31:02;;;;;;;14.40;9.20;;;9.10;99.90;;;;;;5034478;28;20095;-75
2022/05/06 00:33:28;;;;;;;11.45;7.88;;;9.10;99.90;;;;;;5052807;28;20036;-75
2022/05/06 00:35:54;;;;;;;14.38;9.45;;;9.20;99.90;;;;;;5037176;28;20043;-75
2022/05/06 00:38:20;;;;;;;13.52;8.90;;;9.10;99.90;;;;;;5029700;28;20028;-75
2022/05/06 00:40:46;;;;;;;16.15;9.75;;;9.10;99.90;;;;;;5054045;28;20075;-75
2022/05/06 00:43:12;;;;;;;15.77;9.80;;;9.00;99.90;;;;;;5014148;28;20120;-75
2022/05/06 00:45:49;;;;;;;14.70;9.88;;;8.90;99.90;;;;;;5030477;28;20070;-75
2022/05/06 00:48:16;;;;;;;13.90;9.50;;;8.90;99.90;;;;;;5052797;28;22278;-75
2022/05/06 00:50:45;;;;;;;15.02;9.55;;;8.90;99.90;;;;;;5038233;28;20043;-75
2022/05/06 00:53:15;;;;;;;12.50;9.05;;;9.00;99.90;;;;;;5035815;28;20136;-76
2022/05/06 00:55:41;;;;;;;13.48;9.77;;;8.90;99.90;;;;;;5037510;28;20392;-75
2022/05/06 00:58:08;;;;;;;12.77;9.63;;;8.90;99.90;;;;;;5029733;28;20028;-76
2022/05/06 01:00:34;;;;;;;15.02;9.40;;;8.90;99.90;;;;;;5037239;28;20037;-75
2022/05/06 01:02:59;;;;;;;14.90;10.73;;;8.80;99.90;;;;;;5036438;28;20480;-75
2022/05/06 01:05:26;;;;;;;16.63;10.30;;;8.80;99.90;;;;;;5037571;28;20037;-75
2022/05/06 01:07:53;;;;;;;18.10;9.95;;;8.70;99.90;;;;;;5040289;28;20435;-75
2022/05/06 01:10:21;;;;;;;13.15;9.52;;;8.70;99.90;;;;;;5046839;28;20409;-75
2022/05/06 01:12:48;;;;;;;16.98;10.50;;;8.70;99.90;;;;;;5056011;28;20029;-74
2022/05/06 01:15:19;;;;;;;14.80;11.25;;;8.80;99.90;;;;;;5055356;28;20484;-74
2022/05/06 01:17:51;;;;;;;17.65;11.40;;;8.60;99.90;;;;;;5017099;28;20025;-75
2022/05/06 01:20:18;;;;;;;15.88;11.13;;;8.70;99.90;;;;;;5041189;28;20477;-75
2022/05/06 01:22:48;;;;;;;13.57;9.40;;;8.60;99.90;;;;;;5040726;28;20053;-75
2022/05/06 01:25:15;;;;;;;16.33;10.35;;;8.70;99.90;;;;;;5040693;28;20093;-75
2022/05/06 01:27:55;;;;;;;16.95;11.43;;;8.60;99.90;;;;;;5055890;28;20470;-75
2022/05/06 01:30:37;;;;;;;16.55;9.52;;;8.50;99.90;;;;;;5041150;28;20078;-75
2022/05/06 01:33:08;;;;;;;13.00;9.95;;;8.50;99.90;;;;;;5055621;28;20040;-75
2022/05/06 01:35:41;;;;;;;15.35;10.07;;;8.50;99.90;;;;;;5016746;28;20067;-75
2022/05/06 01:38:07;;;;;;;16.17;10.27;;;8.50;99.90;;;;;;5032060;28;20063;-75
2022/05/06 01:40:39;;;;;;;14.73;9.95;;;8.50;99.90;;;;;;5039057;28;20056;-75
2022/05/06 01:43:10;;;;;;;16.73;9.68;;;8.50;99.90;;;;;;5039245;28;20374;-75
2022/05/06 01:45:38;;;;;;;14.82;10.13;;;8.30;99.90;;;;;;5040780;28;20041;-74
2022/05/06 01:48:05;;;;;;;15.50;9.45;;;8.40;99.90;;;;;;5016112;28;20037;-75
2022/05/06 01:50:37;;;;;;;16.80;10.47;;;8.40;99.90;;;;;;5040201;28;20427;-75
2022/05/06 01:53:04;;;;;;;13.63;9.48;;;8.30;99.90;;;;;;5017132;28;20436;-75
2022/05/06 01:55:29;;;;;;;16.33;9.38;;;8.40;99.90;;;;;;5038630;28;20052;-75
2022/05/06 01:58:00;;;;;;;12.10;9.32;;;8.30;99.90;;;;;;5013157;28;20025;-75
2022/05/06 02:00:29;;;;;;;13.90;9.18;;;8.30;99.90;;;;;;5055841;28;20037;-75
2022/05/06 02:02:56;;;;;;;15.10;9.95;;;8.20;99.90;;;;;;5039413;28;20072;-75
2022/05/06 02:05:36;;;;;;;12.57;9.15;;;8.10;99.90;;;;;;5054904;28;20124;-75
2022/05/06 02:08:02;;;;;;;13.02;9.30;;;8.10;99.90;;;;;;5038995;28;20029;-74
2022/05/06 02:10:28;;;;;;;14.63;10.20;;;8.20;99.90;;;;;;5039572;28;20497;-76
2022/05/06 02:13:00;;;;;;;13.55;9.20;;;8.20;99.90;;;;;;5030792;28;20463;-75
2022/05/06 02:16:02;;;;;;;13.43;10.00;;;8.10;99.90;;;;;;5030812;28;20452;-75
2022/05/06 02:19:00;;;;;;;12.75;8.90;;;8.10;99.90;;;;;;5011709;28;20068;-75
2022/05/06 02:21:32;;;;;;;15.02;9.55;;;8.00;99.90;;;;;;5010863;28;20029;-75
2022/05/06 02:24:30;;;;;;;12.90;9.70;;;7.90;99.90;;;;;;4958143;28;20038;-75
2022/05/06 02:27:18;;;;;;;13.15;8.90;;;8.00;99.90;;;;;;4890647;29;20044;-75
2022/05/06 02:35:22;;;;;;;15.30;9.63;;;8.00;99.90;;;;;;4890134;29;20131;-75
2022/05/06 02:37:48;;;;;;;14.18;10.07;;;7.90;99.90;;;;;;4878840;29;20207;-75
2022/05/06 02:40:16;;;;;;;14.90;9.18;;;7.90;99.90;;;;;;4892922;29;20067;-75
2022/05/06 02:42:41;;;;;;;15.73;10.40;;;7.90;99.90;;;;;;4882154;29;20565;-75
2022/05/06 02:45:08;;;;;;;15.57;9.63;;;7.80;99.90;;;;;;4880905;29;20036;-75
2022/05/06 02:47:35;;;;;;;16.13;10.45;;;7.80;99.90;;;;;;4864820;29;20206;-75
2022/05/06 02:50:02;;;;;;;14.73;10.05;;;7.90;99.90;;;;;;4881465;29;20032;-75
2022/05/06 02:52:30;;;;;;;12.93;9.13;;;7.80;99.90;;;;;;4875163;29;20048;-75
2022/05/06 02:54:55;;;;;;;13.38;9.40;;;7.70;99.90;;;;;;4869296;29;20395;-75
2022/05/06 02:57:21;;;;;;;15.02;9.65;;;7.80;99.90;;;;;;4860872;29;20180;-75
2022/05/06 02:59:47;;;;;;;14.25;9.88;;;7.80;99.90;;;;;;4889383;28;20425;-75
2022/05/06 03:02:16;;;;;;;14.50;9.35;;;7.70;99.90;;;;;;4950960;28;20606;-75
2022/05/06 03:04:43;;;;;;;13.68;9.75;;;7.70;99.90;;;;;;4989626;28;20053;-75
2022/05/06 03:07:10;;;;;;;16.65;10.45;;;7.70;99.90;;;;;;5022483;28;20373;-75
2022/05/06 03:09:41;;;;;;;13.52;9.65;;;7.70;99.90;;;;;;5053632;28;20044;-75
2022/05/06 03:12:09;;;;;;;12.25;8.30;;;7.70;99.90;;;;;;5031525;28;20086;-75
2022/05/06 03:14:38;;;;;;;10.90;7.90;;;7.70;99.90;;;;;;5022235;28;20040;-74
2022/05/06 03:17:27;;;;;;;10.63;7.50;;;7.80;99.90;;;;;;5037329;28;20033;-76
2022/05/06 03:19:52;;;;;;;12.32;8.73;;;7.70;99.90;;;;;;5038484;28;20429;-75
2022/05/06 03:22:18;;;;;;;13.40;9.48;;;7.50;99.90;;;;;;5019638;28;20041;-75
2022/05/06 03:24:46;;;;;;;15.68;10.30;;;7.50;99.90;;;;;;5053787;28;20032;-75
2022/05/06 03:29:56;;;;;;;14.80;9.52;;;7.40;99.90;;;;;;5029160;28;20536;-75
2022/05/06 03:32:22;;;;;;;14.90;9.95;;;7.40;99.90;;;;;;5013314;28;20171;-75
2022/05/06 03:34:52;;;;;;;13.35;9.10;;;7.40;99.90;;;;;;5020580;28;20591;-75
2022/05/06 03:37:19;;;;;;;15.70;9.82;;;7.50;99.90;;;;;;5035137;28;20033;-74
2022/05/06 03:39:47;;;;;;;12.95;9.40;;;7.40;99.90;;;;;;5010171;28;20075;-75
2022/05/06 03:42:13;;;;;;;14.07;9.65;;;7.40;99.90;;;;;;5037170;28;20059;-75
2022/05/06 03:44:41;;;;;;;14.60;9.88;;;7.50;99.90;;;;;;5053080;28;20059;-75
2022/05/06 03:47:08;;;;;;;16.30;11.10;;;7.50;99.90;;;;;;5020824;28;20439;-74
2022/05/06 03:49:35;;;;;;;15.55;10.32;;;7.30;99.90;;;;;;5036533;28;20496;-75
2022/05/06 03:52:03;;;;;;;15.40;10.45;;;7.30;99.90;;;;;;5021262;28;20417;-75
2022/05/06 03:54:29;;;;;;;17.80;10.50;;;7.40;99.90;;;;;;5005379;28;21999;-75
2022/05/06 03:56:55;;;;;;;13.82;9.27;;;7.40;99.90;;;;;;5036712;28;20519;-74
2022/05/06 03:59:22;;;;;;;16.38;10.35;;;7.40;99.90;;;;;;5044093;28;20108;-76
2022/05/06 04:01:55;;;;;;;16.60;10.25;;;7.50;99.90;;;;;;5022110;28;20025;-75
2022/05/06 04:04:27;;;;;;;16.48;10.00;;;7.30;99.90;;;;;;5037794;28;20052;-75
2022/05/06 04:06:54;;;;;;;13.75;8.88;;;7.30;99.90;;;;;;5035268;28;20457;-75
2022/05/06 04:09:21;;;;;;;13.60;9.68;;;7.40;99.90;;;;;;5021142;28;20108;-75
2022/05/06 04:11:47;;;;;;;15.75;9.70;;;7.40;99.90;;;;;;5035274;28;20033;-75
2022/05/06 04:14:12;;;;;;;17.00;9.43;;;7.30;99.90;;;;;;5029287;28;20029;-75
2022/05/06 04:16:43;;;;;;;13.35;8.63;;;7.40;99.90;;;;;;5035352;28;20057;-74
2022/05/06 04:19:19;;;;;;;14.00;9.18;;;7.40;99.90;;;;;;5053229;28;20051;-75
2022/05/06 04:24:36;;;;;;;15.93;8.77;;;7.30;99.90;;;;;;5052473;28;20024;-75
2022/05/06 04:27:03;;;;;;;13.60;8.85;;;7.30;99.90;;;;;;5035450;28;20465;-75
2022/05/06 04:29:29;;;;;;;12.70;8.80;;;7.40;99.90;;;;;;5052822;28;20475;-75
2022/05/06 04:31:55;;;;;;;13.32;9.32;;;7.50;99.90;;;;;;5041531;28;20051;-76
2022/05/06 04:34:20;;;;;;;13.85;9.57;;;7.50;99.90;;;;;;5035540;28;20421;-75
2022/05/06 04:36:46;;;;;;;13.52;9.25;;;7.50;99.90;;;;;;5035948;28;20021;-74
2022/05/06 04:39:13;;;;;;;15.70;9.98;;;7.50;99.90;;;;;;5035982;28;20036;-75
2022/05/06 04:41:47;;;;;;;15.45;9.93;;;7.60;99.90;;;;;;5040175;28;20120;-75
2022/05/06 04:44:14;;;;;;;15.98;10.80;;;7.60;99.90;;;;;;5039969;28;20036;-75
2022/05/06 04:46:40;;;;;;;16.13;10.60;;;7.70;99.90;;;;;;5040760;28;20040;-76
2022/05/06 04:49:05;;;;;;;15.10;9.25;;;7.80;99.90;;;;;;5040092;28;20425;-75
2022/05/06 04:51:32;;;;;;;19.42;11.85;;;7.80;99.90;;;;;;5040531;28;20534;-75
2022/05/06 04:53:57;;;;;;;17.60;11.40;;;7.90;99.90;;;;;;5030542;28;20033;-75
2022/05/06 04:56:23;;;;;;;18.88;11.98;;;7.90;99.90;;;;;;5039097;28;20472;-75
2022/05/06 04:58:51;;;;;;;16.55;10.70;;;7.90;99.90;;;;;;5046851;28;20025;-75
2022/05/06 05:01:25;;;;;;;18.85;12.23;;;8.10;99.90;;;;;;5024345;28;20086;-75
2022/05/06 05:03:51;;;;;;;19.85;11.70;;;8.20;99.90;;;;;;5055842;28;20037;-75
2022/05/06 05:06:18;;;;;;;19.33;12.07;;;8.20;99.90;;;;;;5033432;28;20568;-75
2022/05/06 05:08:45;;;;;;;18.33;12.00;;;8.20;99.90;;;;;;5055448;28;20044;-75
2022/05/06 05:11:11;;;;;;;16.15;10.98;;;8.30;99.90;;;;;;5022730;28;20025;-75
2022/05/06 05:13:43;;;;;;;20.67;12.63;;;8.50;99.90;;;;;;5055898;28;20110;-75
2022/05/06 05:16:17;;;;;;;24.33;15.32;;;8.60;99.90;;;;;;5046132;28;20044;-75
2022/05/06 05:18:44;;;;;;;25.70;17.15;;;8.50;99.90;;;;;;5005935;28;20091;-75
2022/05/06 05:21:10;;;;;;;26.17;15.73;;;8.50;99.90;;;;;;5037430;28;20025;-75
2022/05/06 05:23:36;;;;;;;25.38;17.23;;;8.50;99.90;;;;;;5032464;28;20055;-75
2022/05/06 05:26:02;;;;;;;24.52;17.73;;;8.50;99.90;;;;;;5039011;28;20119;-75
2022/05/06 05:28:28;;;;;;;24.13;16.17;;;8.60;99.90;;;;;;5041149;28;20029;-75
2022/05/06 05:30:54;;;;;;;20.45;13.85;;;8.60;99.90;;;;;;5023039;28;20104;-75
2022/05/06 05:33:20;;;;;;;27.48;19.27;;;8.70;99.90;;;;;;5039034;28;20380;-75
2022/05/06 05:35:51;;;;;;;29.02;20.15;;;8.70;99.90;;;;;;5039604;28;20120;-75
2022/05/06 05:38:17;;;;;;;25.17;17.52;;;8.80;99.90;;;;;;5032669;28;20047;-76
2022/05/06 05:40:43;;;;;;;31.55;20.13;;;8.80;99.90;;;;;;5038728;28;20377;-75
2022/05/06 05:48:19;;;;;;;32.63;18.55;;;8.80;99.90;;;;;;5023151;28;20461;-76
2022/05/06 05:48:42;;;;;;;24.60;17.75;;;8.80;99.90;;;;;;5040081;28;20049;-75
2022/05/06 05:51:08;;;;;;;24.30;17.73;;;8.80;99.90;;;;;;5038641;28;20125;-76
2022/05/06 05:53:42;;;;;;;26.73;17.40;;;9.00;99.90;;;;;;5054634;28;20036;-75
2022/05/06 05:56:08;;;;;;;17.80;13.45;;;9.00;99.90;;;;;;5055037;28;20480;-75
2022/05/06 05:58:34;;;;;;;25.27;17.58;;;9.20;99.90;;;;;;5038669;28;20036;-75
2022/05/06 06:01:03;;;;;;;17.35;12.88;;;9.20;99.90;;;;;;5033717;28;20036;-75
2022/05/06 06:03:32;;;;;;;19.17;13.70;;;9.30;99.90;;;;;;5041890;28;20064;-75
2022/05/06 06:05:59;;;;;;;24.15;17.05;;;9.40;99.90;;;;;;5036047;28;20470;-75
2022/05/06 06:08:26;;;;;;;22.67;16.73;;;9.30;99.90;;;;;;5033656;28;20021;-75
2022/05/06 06:10:56;;;;;;;32.42;18.63;;;9.30;99.90;;;;;;5019956;28;20029;-75
2022/05/06 06:13:22;;;;;;;18.90;12.98;;;9.20;99.90;;;;;;5026278;28;20036;-75
2022/05/06 06:15:49;;;;;;;20.95;15.57;;;9.40;99.90;;;;;;5035688;28;20033;-75
2022/05/06 06:18:15;;;;;;;17.45;13.05;;;9.30;99.90;;;;;;5051158;28;20029;-75
2022/05/06 06:20:42;;;;;;;18.83;14.23;;;9.40;99.90;;;;;;5034393;28;20563;-75
2022/05/06 06:23:07;;;;;;;22.38;16.80;;;9.60;99.90;;;;;;5019980;28;20025;-75
2022/05/06 06:25:33;;;;;;;25.23;16.85;;;9.60;99.90;;;;;;5035602;28;20051;-75
2022/05/06 06:28:00;;;;;;;20.98;15.45;;;9.60;99.90;;;;;;5038735;28;20160;-75
2022/05/06 06:30:26;;;;;;;26.75;19.23;;;9.80;99.90;;;;;;4977738;28;20136;-75
2022/05/06 06:32:55;;;;;;;22.40;16.48;;;9.80;99.90;;;;;;5005642;28;20036;-75
2022/05/06 06:35:22;;;;;;;24.52;18.13;;;9.70;99.90;;;;;;5024366;28;20064;-76
2022/05/06 06:37:52;;;;;;;18.13;13.73;;;9.90;99.90;;;;;;5017890;28;20025;-75
2022/05/06 06:40:21;;;;;;;16.55;12.75;;;10.20;99.90;;;;;;5018030;28;20033;-76
2022/05/06 06:42:47;;;;;;;15.68;10.82;;;10.40;99.90;;;;;;5034378;28;20487;-76
2022/05/06 06:45:22;;;;;;;14.48;10.45;;;10.60;99.90;;;;;;5013987;28;20725;-76
2022/05/06 06:47:55;;;;;;;14.80;10.13;;;10.70;99.90;;;;;;5033532;28;20029;-76
2022/05/06 06:50:39;;;;;;;17.80;12.10;;;10.60;99.90;;;;;;5018358;28;20084;-76
2022/05/06 06:53:20;;;;;;;16.65;12.82;;;10.60;99.90;;;;;;5028294;28;20567;-75
2022/05/06 06:55:45;;;;;;;19.98;12.85;;;10.30;99.90;;;;;;5033494;28;20505;-76
2022/05/06 06:58:11;;;;;;;26.58;18.92;;;10.40;99.90;;;;;;5035695;28;20040;-75
2022/05/06 07:00:37;;;;;;;22.45;17.20;;;10.40;99.90;;;;;;5035132;28;20043;-75
2022/05/06 07:03:03;;;;;;;21.15;16.25;;;10.50;99.90;;;;;;5035735;28;20044;-76
2022/05/06 07:05:29;;;;;;;30.80;21.85;;;10.50;99.90;;;;;;5035409;28;20044;-76
2022/05/06 07:13:25;;;;;;;28.42;21.27;;;10.50;99.90;;;;;;5035991;28;20036;-75
2022/05/06 07:15:51;;;;;;;31.45;22.75;;;10.70;99.90;;;;;;5035506;28;20052;-75
2022/05/06 07:18:17;;;;;;;27.10;19.65;;;10.50;99.90;;;;;;5036380;28;20507;-76
2022/05/06 07:20:43;;;;;;;24.70;18.20;;;10.60;99.90;;;;;;5040416;28;20060;-75
2022/05/06 07:23:10;;;;;;;28.27;20.77;;;10.70;99.90;;;;;;5019399;28;20106;-75
2022/05/06 07:25:36;;;;;;;41.42;28.98;;;11.00;99.90;;;;;;5032095;28;20405;-76
2022/05/06 07:28:02;;;;;;;36.65;25.85;;;11.00;99.90;;;;;;5033964;28;20044;-75
2022/05/06 07:30:27;;;;;;;32.70;23.83;;;11.10;99.90;;;;;;4997245;28;20152;-75
2022/05/06 07:32:53;;;;;;;33.53;23.35;;;11.50;99.90;;;;;;4998024;28;20029;-75
2022/05/06 07:35:20;;;;;;;27.90;19.02;;;11.70;99.90;;;;;;5033417;28;20042;-75
2022/05/06 07:37:45;;;;;;;33.47;23.58;;;11.90;99.90;;;;;;5048791;28;20045;-76
2022/05/06 07:40:11;;;;;;;36.90;25.63;;;11.90;99.90;;;;;;5031449;28;20040;-76
2022/05/06 07:42:37;;;;;;;36.35;23.70;;;12.10;99.90;;;;;;5030969;28;20130;-76
2022/05/06 07:45:04;;;;;;;35.33;24.20;;;12.50;99.90;;;;;;5033094;28;20079;-76
2022/05/06 07:47:30;;;;;;;41.63;28.10;;;12.50;99.90;;;;;;5017798;28;20115;-76
2022/05/06 07:49:56;;;;;;;32.42;24.05;;;12.50;99.90;;;;;;5050346;28;20044;-76
2022/05/06 07:52:22;;;;;;;34.90;23.25;;;12.60;99.90;;;;;;5028823;28;20021;-76
2022/05/06 07:54:47;;;;;;;26.17;19.55;;;13.10;99.90;;;;;;5016140;28;20432;-75
2022/05/06 07:57:13;;;;;;;39.90;27.67;;;13.60;99.90;;;;;;5030470;28;20190;-75
2022/05/06 07:59:39;;;;;;;37.22;25.58;;;13.30;99.90;;;;;;5034144;28;20021;-76
2022/05/06 08:04:49;;;;;;;36.85;26.15;;;13.00;99.90;;;;;;5030337;28;20539;-76
2022/05/06 08:07:16;;;;;;;29.83;20.83;;;13.60;99.90;;;;;;5033614;28;20393;-76
2022/05/06 08:09:42;;;;;;;30.85;20.88;;;14.10;99.90;;;;;;5049155;28;20461;-76
2022/05/06 08:12:09;;;;;;;31.55;22.17;;;14.50;99.90;;;;;;5049364;28;20044;-76
2022/05/06 08:14:35;;;;;;;36.97;25.45;;;14.40;99.90;;;;;;5033409;28;20036;-76
2022/05/06 08:17:01;;;;;;;32.40;22.90;;;13.60;99.90;;;;;;5034622;28;20039;-76
2022/05/06 08:19:26;;;;;;;35.88;27.08;;;13.80;99.90;;;;;;5034735;28;20043;-76
2022/05/06 08:21:53;;;;;;;32.15;23.08;;;13.80;99.90;;;;;;5034586;28;20045;-76
2022/05/06 08:24:19;;;;;;;29.77;20.58;;;14.40;99.90;;;;;;5035858;28;20715;-76
2022/05/06 08:26:45;;;;;;;21.63;15.50;;;14.90;99.90;;;;;;5035520;28;20068;-76
2022/05/06 08:29:11;;;;;;;28.35;21.17;;;15.30;99.90;;;;;;5033951;28;20039;-76
2022/05/06 08:31:37;;;;;;;32.05;22.80;;;14.70;99.90;;;;;;5035283;28;20099;-76
2022/05/06 08:34:08;;;;;;;24.98;17.27;;;14.70;99.90;;;;;;5017733;28;20021;-76
2022/05/06 08:36:36;;;;;;;26.73;17.95;;;15.70;99.90;;;;;;5035145;28;20033;-76
2022/05/06 08:39:03;;;;;;;26.27;18.38;;;15.40;99.90;;;;;;5035116;28;20477;-76
2022/05/06 08:41:29;;;;;;;22.33;15.73;;;15.50;99.90;;;;;;5034735;28;20470;-77
2022/05/06 08:43:56;;;;;;;25.10;18.10;;;16.00;99.90;;;;;;5050263;28;20455;-77
2022/05/06 08:51:55;;;;;;;30.00;21.73;;;15.30;99.90;;;;;;5033423;28;20041;-77
2022/05/06 08:54:22;;;;;;;21.40;16.30;;;15.10;99.90;;;;;;5037835;28;20080;-77
2022/05/06 08:56:49;;;;;;;27.77;20.83;;;15.20;99.90;;;;;;5032012;28;20378;-77
2022/05/06 08:59:15;;;;;;;21.70;16.48;;;14.80;99.90;;;;;;5032855;28;20143;-77
2022/05/06 09:01:41;;;;;;;25.13;20.40;;;15.70;99.90;;;;;;5032912;28;20028;-77
2022/05/06 09:04:07;;;;;;;19.25;14.95;;;15.00;99.90;;;;;;5032593;28;20041;-77
2022/05/06 09:06:33;;;;;;;24.05;17.90;;;15.60;99.90;;;;;;5028211;28;20041;-76
2022/05/06 09:08:59;;;;;;;22.30;17.92;;;15.50;99.90;;;;;;5032360;28;20033;-78
2022/05/06 09:16:39;;;;;;;19.00;13.98;;;15.90;99.90;;;;;;5032870;28;20030;-77
2022/05/06 09:17:22;;;;;;;17.05;13.40;;;15.70;99.90;;;;;;5033068;28;20042;-77
2022/05/06 09:19:48;;;;;;;18.33;13.82;;;15.90;99.90;;;;;;5032304;28;20042;-78
2022/05/06 09:22:14;;;;;;;17.52;13.07;;;15.80;99.90;;;;;;5047428;28;20037;-77
2022/05/06 09:24:42;;;;;;;19.58;14.90;;;16.30;99.90;;;;;;5048392;28;20412;-78
2022/05/06 09:27:10;;;;;;;20.17;14.73;;;15.90;99.90;;;;;;5033187;28;20029;-78
2022/05/06 09:29:44;;;;;;;14.70;11.02;;;16.50;99.90;;;;;;5051655;28;20035;-77
2022/05/06 09:32:12;;;;;;;17.05;12.55;;;16.70;99.90;;;;;;5020457;28;20037;-77
2022/05/06 09:34:40;;;;;;;14.60;12.15;;;16.50;99.90;;;;;;5037374;28;20469;-77
2022/05/06 09:37:06;;;;;;;13.93;10.98;;;16.30;99.90;;;;;;5020589;28;20056;-78
2022/05/06 09:39:32;;;;;;;13.05;10.45;;;16.70;99.90;;;;;;5020785;28;20596;-78
2022/05/06 09:42:03;;;;;;;12.20;9.88;;;16.60;99.90;;;;;;5037405;28;20362;-78
2022/05/06 09:44:29;;;;;;;11.68;9.05;;;16.70;99.90;;;;;;5054832;28;20029;-77
2022/05/06 09:47:12;;;;;;;16.13;11.88;;;16.80;99.90;;;;;;5038658;28;20041;-77
2022/05/06 09:49:42;;;;;;;11.98;8.90;;;16.90;99.90;;;;;;5038247;28;20021;-78
2022/05/06 09:52:13;;;;;;;11.98;9.07;;;17.20;99.90;;;;;;5037009;28;20439;-77
2022/05/06 09:54:43;;;;;;;12.20;9.60;;;17.20;99.90;;;;;;5038352;28;20032;-77
2022/05/06 09:57:20;;;;;;;9.68;8.35;;;17.40;99.90;;;;;;5053100;28;20044;-77
2022/05/06 09:59:46;;;;;;;9.10;7.60;;;17.50;99.90;;;;;;5052878;28;20040;-77
2022/05/06 10:02:13;;;;;;;10.50;8.88;;;17.40;99.90;;;;;;5038703;28;20120;-77
2022/05/06 10:04:40;;;;;;;7.97;6.53;;;17.70;99.90;;;;;;5019580;28;20477;-77
2022/05/06 10:07:09;;;;;;;7.97;5.78;;;17.60;99.90;;;;;;5037256;28;20041;-77
2022/05/06 10:09:53;;;;;;;7.72;6.50;;;18.10;99.90;;;;;;5035849;28;20126;-78
2022/05/06 10:12:20;;;;;;;9.00;7.05;;;18.00;99.90;;;;;;5051070;28;20155;-77
2022/05/06 10:14:46;;;;;;;6.93;6.20;;;18.00;99.90;;;;;;5032350;28;20025;-77
2022/05/06 10:17:12;;;;;;;8.20;7.35;;;18.00;99.90;;;;;;5034544;28;20131;-77
2022/05/06 10:19:38;;;;;;;9.70;6.47;;;17.80;99.90;;;;;;5035575;28;20031;-78
2022/05/06 10:22:05;;;;;;;7.57;5.28;;;18.20;99.90;;;;;;5034493;28;20037;-77
2022/05/06 10:24:39;;;;;;;6.88;5.05;;;18.00;99.90;;;;;;5020919;28;20160;-78
2022/05/06 10:32:25;;;;;;;7.65;6.65;;;18.20;99.90;;;;;;5029919;28;20473;-78
2022/05/06 10:33:15;;;;;;;4.55;3.33;;;19.60;99.90;;;;;;5035738;28;20321;-77
2022/05/06 10:35:45;;;;;;;2.53;1.55;;;19.10;99.90;;;;;;5035267;28;20077;-78
2022/05/06 10:38:19;;;;;;;2.63;2.00;;;19.00;99.90;;;;;;5016176;28;20029;-78
2022/05/06 10:40:49;;;;;;;5.25;2.63;;;19.90;99.90;;;;;;5041585;28;20226;-79
2022/05/06 10:43:44;;;;;;;2.53;1.45;;;20.00;99.90;;;;;;5036369;28;20572;-78
2022/05/06 10:46:10;;;;;;;3.17;2.58;;;20.60;99.90;;;;;;5034519;28;20040;-78
2022/05/06 10:48:36;;;;;;;1.73;1.00;;;20.60;99.90;;;;;;5034922;28;20032;-77
2022/05/06 10:51:21;;;;;;;3.00;1.88;;;20.60;99.90;;;;;;5034779;28;20059;-78
2022/05/06 10:53:47;;;;;;;2.10;1.15;;;20.30;99.90;;;;;;5035518;28;20029;-78
2022/05/06 10:56:14;;;;;;;2.13;1.45;;;20.00;99.90;;;;;;5020382;28;20478;-78
2022/05/06 10:58:40;;;;;;;2.20;1.50;;;19.90;99.90;;;;;;5031508;28;20042;-79
2022/05/06 11:01:06;;;;;;;3.55;2.17;;;19.50;99.90;;;;;;5015250;28;20735;-78
2022/05/06 11:03:32;;;;;;;3.00;1.88;;;19.50;99.90;;;;;;5010415;28;20053;-77
2022/05/06 11:05:57;;;;;;;2.08;0.70;;;19.20;99.90;;;;;;5000541;28;20045;-78
2022/05/06 11:08:33;;;;;;;1.85;0.82;;;20.20;99.90;;;;;;5017253;28;20048;-78
2022/05/06 11:10:59;;;;;;;1.63;0.70;;;19.20;99.90;;;;;;5011202;28;20025;-77
2022/05/06 11:13:25;;;;;;;2.15;0.63;;;19.30;99.90;;;;;;5018803;28;20026;-78
2022/05/06 11:15:52;;;;;;;1.20;0.60;;;20.30;99.90;;;;;;5016069;28;20283;-78
2022/05/06 11:18:19;;;;;;;1.25;0.60;;;20.50;99.90;;;;;;5017947;28;20045;-79
2022/05/06 11:20:44;;;;;;;1.40;0.60;;;21.20;99.90;;;;;;5017897;28;20026;-78
2022/05/06 11:23:13;;;;;;;1.95;1.20;;;21.10;99.90;;;;;;5016828;28;20055;-78
2022/05/06 11:25:44;;;;;;;2.25;1.15;;;19.30;99.90;;;;;;5018073;28;20041;-77
2022/05/06 11:28:15;;;;;;;2.20;1.63;;;19.50;99.90;;;;;;5016243;28;20450;-78
2022/05/06 11:30:45;;;;;;;3.60;1.77;;;19.60;99.90;;;;;;5015576;28;20118;-77
2022/05/06 11:33:27;;;;;;;2.42;1.50;;;19.70;99.90;;;;;;5016219;28;20026;-78
2022/05/06 11:36:01;;;;;;;1.52;0.90;;;20.30;99.90;;;;;;5027212;28;20029;-78
2022/05/06 11:38:34;;;;;;;1.40;0.63;;;20.50;99.90;;;;;;5032877;28;20080;-78
2022/05/06 11:41:14;;;;;;;2.17;1.27;;;21.50;99.90;;;;;;5030252;28;20068;-78
2022/05/06 11:43:44;;;;;;;2.40;1.55;;;20.20;99.90;;;;;;5011725;28;20099;-78
2022/05/06 11:49:06;;;;;;;2.25;1.65;;;19.90;99.90;;;;;;5014007;28;20042;-78
2022/05/06 11:51:41;;;;;;;1.85;1.05;;;20.40;99.90;;;;;;5013355;28;20036;-79
2022/05/06 11:54:09;;;;;;;2.20;1.05;;;21.30;99.90;;;;;;5009393;28;20048;-78
2022/05/06 11:56:34;;;;;;;1.98;0.90;;;21.20;99.90;;;;;;5014828;28;20068;-78
2022/05/06 11:59:01;;;;;;;2.60;1.10;;;21.30;99.90;;;;;;5031125;28;20065;-79
2022/05/06 12:01:38;;;;;;;2.17;0.75;;;20.80;99.90;;;;;;5015529;28;20057;-78
2022/05/06 12:04:06;;;;;;;1.40;0.50;;;20.60;99.90;;;;;;5012584;28;20335;-79
2022/05/06 12:06:32;;;;;;;1.08;0.40;;;21.40;99.90;;;;;;4996210;28;20072;-78
2022/05/06 12:09:07;;;;;;;2.15;0.70;;;21.40;99.90;;;;;;5013070;28;20220;-79
2022/05/06 12:11:32;;;;;;;1.63;0.60;;;20.60;99.90;;;;;;5008982;28;20414;-77
2022/05/06 12:14:08;;;;;;;1.55;0.60;;;20.30;99.90;;;;;;5019633;28;20049;-78
2022/05/06 12:16:34;;;;;;;1.67;0.80;;;20.00;99.90;;;;;;5012904;28;20112;-78
2022/05/06 12:19:00;;;;;;;1.05;0.40;;;20.10;99.90;;;;;;5012180;28;20022;-78
2022/05/06 12:21:27;;;;;;;2.30;0.50;;;21.00;99.90;;;;;;5014596;28;20486;-78
2022/05/06 12:23:59;;;;;;;1.35;0.60;;;20.90;99.90;;;;;;5030925;28;20037;-78
2022/05/06 12:26:33;;;;;;;1.15;0.50;;;21.00;99.90;;;;;;5012849;28;20132;-78
2022/05/06 12:28:59;;;;;;;1.17;0.50;;;20.80;99.90;;;;;;4992490;28;20475;-80
2022/05/06 12:31:33;;;;;;;1.15;0.40;;;20.40;99.90;;;;;;5009696;28;20041;-78
2022/05/06 12:34:04;;;;;;;0.60;0.30;;;20.70;99.90;;;;;;5015596;28;20030;-78
2022/05/06 12:36:30;;;;;;;1.65;0.65;;;20.90;99.90;;;;;;5014612;28;20502;-78
2022/05/06 12:38:55;;;;;;;1.40;0.60;;;20.70;99.90;;;;;;5021420;28;20666;-78
2022/05/06 12:41:26;;;;;;;1.85;0.80;;;20.40;99.90;;;;;;5014526;28;20470;-77
2022/05/06 12:43:56;;;;;;;1.52;0.60;;;20.30;99.90;;;;;;5014931;28;20119;-78
2022/05/06 12:46:29;;;;;;;1.85;0.60;;;20.50;99.90;;;;;;5015626;28;20029;-79
2022/05/06 12:51:41;;;;;;;1.00;0.50;;;20.70;99.90;;;;;;5016689;28;20038;-78
2022/05/06 12:54:09;;;;;;;3.08;0.73;;;21.00;99.90;;;;;;5016318;28;20120;-79
2022/05/06 12:56:35;;;;;;;1.20;0.57;;;20.50;99.90;;;;;;5016920;28;20038;-79
2022/05/06 12:59:01;;;;;;;1.75;1.15;;;20.70;99.90;;;;;;5015076;28;20108;-77
2022/05/06 13:01:26;;;;;;;3.60;1.25;;;21.00;99.90;;;;;;5017044;28;20572;-78
2022/05/06 13:03:52;;;;;;;1.58;0.60;;;21.10;99.90;;;;;;5017163;28;20037;-78
2022/05/06 13:06:18;;;;;;;1.10;0.50;;;21.60;99.90;;;;;;5025546;28;20041;-78
2022/05/06 13:08:43;;;;;;;1.60;0.50;;;21.00;99.90;;;;;;5003339;28;20448;-78
2022/05/06 13:11:09;;;;;;;1.00;0.30;;;20.90;99.90;;;;;;5015828;28;20095;-78
2022/05/06 13:13:34;;;;;;;1.80;0.88;;;21.50;99.90;;;;;;5016965;28;20560;-79
2022/05/06 13:16:00;;;;;;;1.60;0.70;;;21.20;99.90;;;;;;5017186;28;20041;-78
2022/05/06 13:18:26;;;;;;;2.10;0.68;;;21.80;99.90;;;;;;5017997;28;20473;-79
2022/05/06 13:20:52;;;;;;;1.27;0.52;;;21.10;99.90;;;;;;4999476;28;20677;-77
2022/05/06 13:23:18;;;;;;;1.70;0.70;;;21.30;99.90;;;;;;5024446;28;20029;-79
2022/05/06 13:25:44;;;;;;;2.50;0.90;;;21.50;99.90;;;;;;5015821;28;20190;-78
2022/05/06 13:28:10;;;;;;;1.17;0.57;;;21.40;99.90;;;;;;5000116;28;20037;-79